Ana Sayfa
METAR-TAF:

METAR-TAF

Havaalanları :

Gillespie County Airport

Fredericksburg, Teksas, Amerika Birleşik Devletleri

Enlem: 30-14-37N, Boylam: 098-54-34W, yükseklik: 517 m

Güncel hava durumu gözlemi

Rapor saat 19:55 UTC de 28 dakika önce yapıldı.
Rüzgar güneydan 15 kt ve 25 kt'a kadar ani rüzgarlar
Sıcaklık 30°C
Nem 55%
Basınç 1007 hPa
Görüş mesafesi: 16.1 km
3700 ft yükseklikte parçalı bulutlu
5500 ft yükseklikte parçalı bulutlu
6500 ft yükseklikte parçalı bulutlu

METAR: KT82 201955Z AUTO 17015G25KT 10SM SCT037 SCT055 SCT065 30/20 A2975 RMK AO2 T02950195

Saat: 15:23 (20:23 UTC)


TAF: eksik

4.000'den fazla havaalanı için hava durumu gözlemleri ve tahminleri (METAR ve TAF raporları).

Kullanılabilir istasyonlar harita üzerinde sarı ve kırmızı noktalarla gösterilir.

İstasyonun adını görmek için fareyi noktanın üzerinde gezdirin.

Sonrasında hava gözlem ve tahminlerini görmek için tıklayın.

Haritayı değiştirmek için: yaklaştırmak için siyah artı işaretli yeşil düğmeye ve uzaklaştırmak için de eksi işaretli düğmeye hızla tıklayın; bitişik haritalar için yeşil okları kullanın.


METAR-TAF: